sensor_id;sensor_type;location;lat;lon;timestamp;P1;P2;P0
48155;PMS5003;35568;48.104;11.782;2024-01-06T00:00:53;14;13;
48155;PMS5003;35568;48.104;11.782;2024-01-06T00:03:21;12;12;
48155;PMS5003;35568;48.104;11.782;2024-01-06T00:05:48;15;14;
48155;PMS5003;35568;48.104;11.782;2024-01-06T00:08:15;12;11;
48155;PMS5003;35568;48.104;11.782;2024-01-06T00:10:43;11;10;
48155;PMS5003;35568;48.104;11.782;2024-01-06T00:13:10;12;12;
48155;PMS5003;35568;48.104;11.782;2024-01-06T00:15:37;14;13;
48155;PMS5003;35568;48.104;11.782;2024-01-06T00:18:05;13;12;
48155;PMS5003;35568;48.104;11.782;2024-01-06T00:20:32;11;10;
48155;PMS5003;35568;48.104;11.782;2024-01-06T00:22:58;11;11;
48155;PMS5003;35568;48.104;11.782;2024-01-06T00:25:26;13;12;
48155;PMS5003;35568;48.104;11.782;2024-01-06T00:27:53;10;10;
48155;PMS5003;35568;48.104;11.782;2024-01-06T00:30:20;13;11;
48155;PMS5003;35568;48.104;11.782;2024-01-06T00:32:47;10;10;
48155;PMS5003;35568;48.104;11.782;2024-01-06T00:35:14;7;7;
48155;PMS5003;35568;48.104;11.782;2024-01-06T00:37:41;10;9;
48155;PMS5003;35568;48.104;11.782;2024-01-06T00:40:08;11;11;
48155;PMS5003;35568;48.104;11.782;2024-01-06T00:42:36;10;10;
48155;PMS5003;35568;48.104;11.782;2024-01-06T00:45:03;10;10;
48155;PMS5003;35568;48.104;11.782;2024-01-06T00:47:31;12;10;
48155;PMS5003;35568;48.104;11.782;2024-01-06T00:49:58;12;11;
48155;PMS5003;35568;48.104;11.782;2024-01-06T00:52:24;13;12;
48155;PMS5003;35568;48.104;11.782;2024-01-06T00:54:52;13;12;
48155;PMS5003;35568;48.104;11.782;2024-01-06T00:57:19;10;10;
48155;PMS5003;35568;48.104;11.782;2024-01-06T00:59:46;15;15;
48155;PMS5003;35568;48.104;11.782;2024-01-06T01:02:14;13;11;
48155;PMS5003;35568;48.104;11.782;2024-01-06T01:04:41;12;12;
48155;PMS5003;35568;48.104;11.782;2024-01-06T01:07:08;8;7;
48155;PMS5003;35568;48.104;11.782;2024-01-06T01:09:36;11;11;
48155;PMS5003;35568;48.104;11.782;2024-01-06T01:12:03;10;10;
48155;PMS5003;35568;48.104;11.782;2024-01-06T01:14:31;10;10;
48155;PMS5003;35568;48.104;11.782;2024-01-06T01:17:06;11;11;
48155;PMS5003;35568;48.104;11.782;2024-01-06T01:19:33;12;11;
48155;PMS5003;35568;48.104;11.782;2024-01-06T01:22:00;13;11;
48155;PMS5003;35568;48.104;11.782;2024-01-06T01:24:28;8;8;
48155;PMS5003;35568;48.104;11.782;2024-01-06T01:26:55;10;9;
48155;PMS5003;35568;48.104;11.782;2024-01-06T01:29:22;7;7;
48155;PMS5003;35568;48.104;11.782;2024-01-06T01:31:49;7;6;
48155;PMS5003;35568;48.104;11.782;2024-01-06T01:34:16;8;8;
48155;PMS5003;35568;48.104;11.782;2024-01-06T01:36:44;6;6;
48155;PMS5003;35568;48.104;11.782;2024-01-06T01:39:11;4;4;
48155;PMS5003;35568;48.104;11.782;2024-01-06T01:41:39;4;4;
48155;PMS5003;35568;48.104;11.782;2024-01-06T01:44:06;7;6;
48155;PMS5003;35568;48.104;11.782;2024-01-06T01:46:33;6;5;
48155;PMS5003;35568;48.104;11.782;2024-01-06T01:49:01;6;6;
48155;PMS5003;35568;48.104;11.782;2024-01-06T01:51:29;4;4;
48155;PMS5003;35568;48.104;11.782;2024-01-06T01:53:58;4;4;
48155;PMS5003;35568;48.104;11.782;2024-01-06T01:56:27;4;4;
48155;PMS5003;35568;48.104;11.782;2024-01-06T01:58:56;9;9;
48155;PMS5003;35568;48.104;11.782;2024-01-06T02:01:25;5;5;
48155;PMS5003;35568;48.104;11.782;2024-01-06T02:03:53;3;3;
48155;PMS5003;35568;48.104;11.782;2024-01-06T02:06:20;2;1;
48155;PMS5003;35568;48.104;11.782;2024-01-06T02:08:48;4;3;
48155;PMS5003;35568;48.104;11.782;2024-01-06T02:11:16;2;2;
48155;PMS5003;35568;48.104;11.782;2024-01-06T02:13:43;3;3;
48155;PMS5003;35568;48.104;11.782;2024-01-06T02:16:10;2;2;
48155;PMS5003;35568;48.104;11.782;2024-01-06T02:18:37;3;3;
48155;PMS5003;35568;48.104;11.782;2024-01-06T02:21:04;2;2;
48155;PMS5003;35568;48.104;11.782;2024-01-06T02:23:34;4;4;
48155;PMS5003;35568;48.104;11.782;2024-01-06T02:26:03;3;3;
48155;PMS5003;35568;48.104;11.782;2024-01-06T02:28:30;4;3;
48155;PMS5003;35568;48.104;11.782;2024-01-06T02:30:58;2;2;
48155;PMS5003;35568;48.104;11.782;2024-01-06T02:33:25;4;3;
48155;PMS5003;35568;48.104;11.782;2024-01-06T02:35:51;1;1;
48155;PMS5003;35568;48.104;11.782;2024-01-06T02:38:18;1;1;
48155;PMS5003;35568;48.104;11.782;2024-01-06T02:40:45;3;3;
48155;PMS5003;35568;48.104;11.782;2024-01-06T02:43:12;1;1;
48155;PMS5003;35568;48.104;11.782;2024-01-06T02:45:39;0;0;
48155;PMS5003;35568;48.104;11.782;2024-01-06T02:48:06;2;2;
48155;PMS5003;35568;48.104;11.782;2024-01-06T02:50:33;0;0;
48155;PMS5003;35568;48.104;11.782;2024-01-06T02:53:01;1;1;
48155;PMS5003;35568;48.104;11.782;2024-01-06T02:55:29;1;1;
48155;PMS5003;35568;48.104;11.782;2024-01-06T02:57:56;2;1;
48155;PMS5003;35568;48.104;11.782;2024-01-06T03:00:23;2;2;
48155;PMS5003;35568;48.104;11.782;2024-01-06T03:02:50;1;1;
48155;PMS5003;35568;48.104;11.782;2024-01-06T03:05:17;2;2;
48155;PMS5003;35568;48.104;11.782;2024-01-06T03:07:44;8;7;
48155;PMS5003;35568;48.104;11.782;2024-01-06T03:10:12;7;6;
48155;PMS5003;35568;48.104;11.782;2024-01-06T03:12:39;7;6;
48155;PMS5003;35568;48.104;11.782;2024-01-06T03:15:07;3;3;
48155;PMS5003;35568;48.104;11.782;2024-01-06T03:17:34;4;4;
48155;PMS5003;35568;48.104;11.782;2024-01-06T03:20:01;3;3;
48155;PMS5003;35568;48.104;11.782;2024-01-06T03:22:29;3;3;
48155;PMS5003;35568;48.104;11.782;2024-01-06T03:24:56;3;3;
48155;PMS5003;35568;48.104;11.782;2024-01-06T03:27:23;3;3;
48155;PMS5003;35568;48.104;11.782;2024-01-06T03:29:49;4;3;
48155;PMS5003;35568;48.104;11.782;2024-01-06T03:32:17;2;2;
48155;PMS5003;35568;48.104;11.782;2024-01-06T03:34:45;2;2;
48155;PMS5003;35568;48.104;11.782;2024-01-06T03:37:12;2;2;
48155;PMS5003;35568;48.104;11.782;2024-01-06T03:39:38;2;2;
48155;PMS5003;35568;48.104;11.782;2024-01-06T03:42:05;0;0;
48155;PMS5003;35568;48.104;11.782;2024-01-06T03:44:33;0;0;
48155;PMS5003;35568;48.104;11.782;2024-01-06T03:47:00;2;2;
48155;PMS5003;35568;48.104;11.782;2024-01-06T03:49:27;2;2;
48155;PMS5003;35568;48.104;11.782;2024-01-06T03:51:54;2;2;
48155;PMS5003;35568;48.104;11.782;2024-01-06T03:54:21;1;1;
48155;PMS5003;35568;48.104;11.782;2024-01-06T03:56:48;1;1;
48155;PMS5003;35568;48.104;11.782;2024-01-06T03:59:15;1;1;
48155;PMS5003;35568;48.104;11.782;2024-01-06T04:03:00;1;1;
48155;PMS5003;35568;48.104;11.782;2024-01-06T04:05:27;2;2;
48155;PMS5003;35568;48.104;11.782;2024-01-06T04:07:53;1;1;
48155;PMS5003;35568;48.104;11.782;2024-01-06T04:10:20;0;0;
48155;PMS5003;35568;48.104;11.782;2024-01-06T04:12:47;1;1;
48155;PMS5003;35568;48.104;11.782;2024-01-06T04:15:14;1;1;
48155;PMS5003;35568;48.104;11.782;2024-01-06T04:17:41;1;1;
48155;PMS5003;35568;48.104;11.782;2024-01-06T04:20:08;1;1;
48155;PMS5003;35568;48.104;11.782;2024-01-06T04:22:36;0;0;
48155;PMS5003;35568;48.104;11.782;2024-01-06T04:25:03;1;1;
48155;PMS5003;35568;48.104;11.782;2024-01-06T04:27:31;2;2;
48155;PMS5003;35568;48.104;11.782;2024-01-06T04:29:58;1;1;
48155;PMS5003;35568;48.104;11.782;2024-01-06T04:32:26;1;1;
48155;PMS5003;35568;48.104;11.782;2024-01-06T04:34:53;1;1;
48155;PMS5003;35568;48.104;11.782;2024-01-06T04:37:20;0;0;
48155;PMS5003;35568;48.104;11.782;2024-01-06T04:39:46;0;0;
48155;PMS5003;35568;48.104;11.782;2024-01-06T04:42:13;0;0;
48155;PMS5003;35568;48.104;11.782;2024-01-06T04:44:40;0;0;
48155;PMS5003;35568;48.104;11.782;2024-01-06T04:47:07;0;0;
48155;PMS5003;35568;48.104;11.782;2024-01-06T04:49:34;0;0;
48155;PMS5003;35568;48.104;11.782;2024-01-06T04:52:01;1;1;
48155;PMS5003;35568;48.104;11.782;2024-01-06T04:54:28;1;0;
48155;PMS5003;35568;48.104;11.782;2024-01-06T04:56:55;0;0;
48155;PMS5003;35568;48.104;11.782;2024-01-06T04:59:22;0;0;
48155;PMS5003;35568;48.104;11.782;2024-01-06T05:01:50;0;0;
48155;PMS5003;35568;48.104;11.782;2024-01-06T05:04:17;0;0;
48155;PMS5003;35568;48.104;11.782;2024-01-06T05:06:44;1;1;
48155;PMS5003;35568;48.104;11.782;2024-01-06T05:09:12;0;0;
48155;PMS5003;35568;48.104;11.782;2024-01-06T05:11:39;0;0;
48155;PMS5003;35568;48.104;11.782;2024-01-06T05:14:06;1;1;
48155;PMS5003;35568;48.104;11.782;2024-01-06T05:16:33;0;0;
48155;PMS5003;35568;48.104;11.782;2024-01-06T05:19:00;5;3;
48155;PMS5003;35568;48.104;11.782;2024-01-06T05:21:28;6;5;
48155;PMS5003;35568;48.104;11.782;2024-01-06T05:23:55;4;3;
48155;PMS5003;35568;48.104;11.782;2024-01-06T05:26:23;0;0;
48155;PMS5003;35568;48.104;11.782;2024-01-06T05:28:51;0;0;
48155;PMS5003;35568;48.104;11.782;2024-01-06T05:31:18;0;0;
48155;PMS5003;35568;48.104;11.782;2024-01-06T05:33:46;0;0;
48155;PMS5003;35568;48.104;11.782;2024-01-06T05:36:18;0;0;
48155;PMS5003;35568;48.104;11.782;2024-01-06T05:38:47;0;0;
48155;PMS5003;35568;48.104;11.782;2024-01-06T05:41:14;0;0;
48155;PMS5003;35568;48.104;11.782;2024-01-06T05:43:41;0;0;
48155;PMS5003;35568;48.104;11.782;2024-01-06T05:46:08;0;0;
48155;PMS5003;35568;48.104;11.782;2024-01-06T05:48:35;0;0;
48155;PMS5003;35568;48.104;11.782;2024-01-06T05:51:04;0;0;
48155;PMS5003;35568;48.104;11.782;2024-01-06T05:53:31;0;0;
48155;PMS5003;35568;48.104;11.782;2024-01-06T05:55:59;0;0;
48155;PMS5003;35568;48.104;11.782;2024-01-06T05:58:25;0;0;
48155;PMS5003;35568;48.104;11.782;2024-01-06T06:00:53;0;0;
48155;PMS5003;35568;48.104;11.782;2024-01-06T06:03:21;0;0;
48155;PMS5003;35568;48.104;11.782;2024-01-06T06:05:48;0;0;
48155;PMS5003;35568;48.104;11.782;2024-01-06T06:08:15;0;0;
48155;PMS5003;35568;48.104;11.782;2024-01-06T06:10:41;0;0;
48155;PMS5003;35568;48.104;11.782;2024-01-06T06:13:10;0;0;
48155;PMS5003;35568;48.104;11.782;2024-01-06T06:15:37;0;0;
48155;PMS5003;35568;48.104;11.782;2024-01-06T06:18:04;0;0;
48155;PMS5003;35568;48.104;11.782;2024-01-06T06:20:31;0;0;
48155;PMS5003;35568;48.104;11.782;2024-01-06T06:22:58;0;0;
48155;PMS5003;35568;48.104;11.782;2024-01-06T06:25:25;0;0;
48155;PMS5003;35568;48.104;11.782;2024-01-06T06:27:52;0;0;
48155;PMS5003;35568;48.104;11.782;2024-01-06T06:30:20;0;0;
48155;PMS5003;35568;48.104;11.782;2024-01-06T06:32:46;1;1;
48155;PMS5003;35568;48.104;11.782;2024-01-06T06:35:13;0;0;
48155;PMS5003;35568;48.104;11.782;2024-01-06T06:37:41;0;0;
48155;PMS5003;35568;48.104;11.782;2024-01-06T06:40:08;0;0;
48155;PMS5003;35568;48.104;11.782;2024-01-06T06:42:35;0;0;
48155;PMS5003;35568;48.104;11.782;2024-01-06T06:45:02;0;0;
48155;PMS5003;35568;48.104;11.782;2024-01-06T06:47:30;1;1;
48155;PMS5003;35568;48.104;11.782;2024-01-06T06:49:57;1;0;
48155;PMS5003;35568;48.104;11.782;2024-01-06T06:52:25;0;0;
48155;PMS5003;35568;48.104;11.782;2024-01-06T06:54:51;1;1;
48155;PMS5003;35568;48.104;11.782;2024-01-06T06:57:18;0;0;
48155;PMS5003;35568;48.104;11.782;2024-01-06T06:59:46;1;1;
48155;PMS5003;35568;48.104;11.782;2024-01-06T07:02:13;1;1;
48155;PMS5003;35568;48.104;11.782;2024-01-06T07:04:40;1;1;
48155;PMS5003;35568;48.104;11.782;2024-01-06T07:07:07;1;1;
48155;PMS5003;35568;48.104;11.782;2024-01-06T07:09:35;1;1;
48155;PMS5003;35568;48.104;11.782;2024-01-06T07:12:02;1;1;
48155;PMS5003;35568;48.104;11.782;2024-01-06T07:14:30;1;1;
48155;PMS5003;35568;48.104;11.782;2024-01-06T07:16:56;4;4;
48155;PMS5003;35568;48.104;11.782;2024-01-06T07:19:23;1;1;
48155;PMS5003;35568;48.104;11.782;2024-01-06T07:21:51;3;3;
48155;PMS5003;35568;48.104;11.782;2024-01-06T07:24:18;2;2;
48155;PMS5003;35568;48.104;11.782;2024-01-06T07:26:45;2;2;
48155;PMS5003;35568;48.104;11.782;2024-01-06T07:29:12;4;3;
48155;PMS5003;35568;48.104;11.782;2024-01-06T07:31:39;1;1;
48155;PMS5003;35568;48.104;11.782;2024-01-06T07:34:06;4;3;
48155;PMS5003;35568;48.104;11.782;2024-01-06T07:36:34;3;3;
48155;PMS5003;35568;48.104;11.782;2024-01-06T07:39:01;3;3;
48155;PMS5003;35568;48.104;11.782;2024-01-06T07:41:29;4;4;
48155;PMS5003;35568;48.104;11.782;2024-01-06T07:43:56;3;3;
48155;PMS5003;35568;48.104;11.782;2024-01-06T07:46:23;4;4;
48155;PMS5003;35568;48.104;11.782;2024-01-06T07:48:52;3;3;
48155;PMS5003;35568;48.104;11.782;2024-01-06T07:51:19;4;3;
48155;PMS5003;35568;48.104;11.782;2024-01-06T07:53:46;2;2;
48155;PMS5003;35568;48.104;11.782;2024-01-06T07:56:13;3;3;
48155;PMS5003;35568;48.104;11.782;2024-01-06T07:58:40;2;2;
48155;PMS5003;35568;48.104;11.782;2024-01-06T08:01:07;3;3;
48155;PMS5003;35568;48.104;11.782;2024-01-06T08:03:34;3;2;
48155;PMS5003;35568;48.104;11.782;2024-01-06T08:06:01;4;3;
48155;PMS5003;35568;48.104;11.782;2024-01-06T08:08:29;4;4;
48155;PMS5003;35568;48.104;11.782;2024-01-06T08:10:55;6;5;
48155;PMS5003;35568;48.104;11.782;2024-01-06T08:13:22;3;3;
48155;PMS5003;35568;48.104;11.782;2024-01-06T08:15:49;4;4;
48155;PMS5003;35568;48.104;11.782;2024-01-06T08:18:16;3;3;
48155;PMS5003;35568;48.104;11.782;2024-01-06T08:20:43;5;4;
48155;PMS5003;35568;48.104;11.782;2024-01-06T08:23:10;5;4;
48155;PMS5003;35568;48.104;11.782;2024-01-06T08:25:37;5;5;
48155;PMS5003;35568;48.104;11.782;2024-01-06T08:28:05;6;6;
48155;PMS5003;35568;48.104;11.782;2024-01-06T08:30:33;3;3;
48155;PMS5003;35568;48.104;11.782;2024-01-06T08:33:00;4;3;
48155;PMS5003;35568;48.104;11.782;2024-01-06T08:35:26;2;2;
48155;PMS5003;35568;48.104;11.782;2024-01-06T08:37:53;3;3;
48155;PMS5003;35568;48.104;11.782;2024-01-06T08:40:20;3;3;
48155;PMS5003;35568;48.104;11.782;2024-01-06T08:42:47;3;3;
48155;PMS5003;35568;48.104;11.782;2024-01-06T08:45:16;3;3;
48155;PMS5003;35568;48.104;11.782;2024-01-06T08:47:42;4;4;
48155;PMS5003;35568;48.104;11.782;2024-01-06T08:50:09;3;3;
48155;PMS5003;35568;48.104;11.782;2024-01-06T08:52:36;3;3;
48155;PMS5003;35568;48.104;11.782;2024-01-06T08:55:03;2;2;
48155;PMS5003;35568;48.104;11.782;2024-01-06T08:57:31;3;3;
48155;PMS5003;35568;48.104;11.782;2024-01-06T08:59:58;3;3;
48155;PMS5003;35568;48.104;11.782;2024-01-06T09:02:24;2;2;
48155;PMS5003;35568;48.104;11.782;2024-01-06T09:04:51;4;4;
48155;PMS5003;35568;48.104;11.782;2024-01-06T09:07:18;3;3;
48155;PMS5003;35568;48.104;11.782;2024-01-06T09:09:45;3;3;
48155;PMS5003;35568;48.104;11.782;2024-01-06T09:12:13;2;2;
48155;PMS5003;35568;48.104;11.782;2024-01-06T09:14:40;3;3;
48155;PMS5003;35568;48.104;11.782;2024-01-06T09:17:07;2;2;
48155;PMS5003;35568;48.104;11.782;2024-01-06T09:19:33;3;2;
48155;PMS5003;35568;48.104;11.782;2024-01-06T09:22:00;2;2;
48155;PMS5003;35568;48.104;11.782;2024-01-06T09:24:27;1;1;
48155;PMS5003;35568;48.104;11.782;2024-01-06T09:26:54;2;1;
48155;PMS5003;35568;48.104;11.782;2024-01-06T09:29:21;1;1;
48155;PMS5003;35568;48.104;11.782;2024-01-06T09:31:49;2;2;
48155;PMS5003;35568;48.104;11.782;2024-01-06T09:34:16;2;2;
48155;PMS5003;35568;48.104;11.782;2024-01-06T09:36:43;1;1;
48155;PMS5003;35568;48.104;11.782;2024-01-06T09:39:10;2;2;
48155;PMS5003;35568;48.104;11.782;2024-01-06T09:41:37;3;3;
48155;PMS5003;35568;48.104;11.782;2024-01-06T09:44:03;2;2;
48155;PMS5003;35568;48.104;11.782;2024-01-06T09:46:31;2;2;
48155;PMS5003;35568;48.104;11.782;2024-01-06T09:48:59;3;2;
48155;PMS5003;35568;48.104;11.782;2024-01-06T09:51:26;2;2;
48155;PMS5003;35568;48.104;11.782;2024-01-06T09:53:56;3;3;
48155;PMS5003;35568;48.104;11.782;2024-01-06T09:56:24;2;2;
48155;PMS5003;35568;48.104;11.782;2024-01-06T09:58:52;3;3;
48155;PMS5003;35568;48.104;11.782;2024-01-06T10:01:19;3;3;
48155;PMS5003;35568;48.104;11.782;2024-01-06T10:03:47;3;2;
48155;PMS5003;35568;48.104;11.782;2024-01-06T10:06:15;2;2;
48155;PMS5003;35568;48.104;11.782;2024-01-06T10:08:42;3;3;
48155;PMS5003;35568;48.104;11.782;2024-01-06T10:11:09;2;2;
48155;PMS5003;35568;48.104;11.782;2024-01-06T10:13:36;3;2;
48155;PMS5003;35568;48.104;11.782;2024-01-06T10:16:03;2;2;
48155;PMS5003;35568;48.104;11.782;2024-01-06T10:18:31;3;3;
48155;PMS5003;35568;48.104;11.782;2024-01-06T10:20:59;2;2;
48155;PMS5003;35568;48.104;11.782;2024-01-06T10:23:31;2;2;
48155;PMS5003;35568;48.104;11.782;2024-01-06T10:25:59;3;3;
48155;PMS5003;35568;48.104;11.782;2024-01-06T10:28:27;3;3;
48155;PMS5003;35568;48.104;11.782;2024-01-06T10:30:54;5;4;
48155;PMS5003;35568;48.104;11.782;2024-01-06T10:33:23;4;3;
48155;PMS5003;35568;48.104;11.782;2024-01-06T10:35:52;2;2;
48155;PMS5003;35568;48.104;11.782;2024-01-06T10:38:19;3;3;
48155;PMS5003;35568;48.104;11.782;2024-01-06T10:41:03;1;1;
48155;PMS5003;35568;48.104;11.782;2024-01-06T10:43:31;4;4;
48155;PMS5003;35568;48.104;11.782;2024-01-06T10:46:00;2;2;
48155;PMS5003;35568;48.104;11.782;2024-01-06T10:48:28;2;2;
48155;PMS5003;35568;48.104;11.782;2024-01-06T10:50:58;4;3;
48155;PMS5003;35568;48.104;11.782;2024-01-06T10:53:25;3;3;
48155;PMS5003;35568;48.104;11.782;2024-01-06T10:55:53;3;3;
48155;PMS5003;35568;48.104;11.782;2024-01-06T10:58:21;3;3;
48155;PMS5003;35568;48.104;11.782;2024-01-06T11:00:49;4;4;
48155;PMS5003;35568;48.104;11.782;2024-01-06T11:03:17;3;2;
48155;PMS5003;35568;48.104;11.782;2024-01-06T11:05:46;3;3;
48155;PMS5003;35568;48.104;11.782;2024-01-06T11:08:12;3;3;
48155;PMS5003;35568;48.104;11.782;2024-01-06T11:10:44;3;3;
48155;PMS5003;35568;48.104;11.782;2024-01-06T11:13:12;3;3;
48155;PMS5003;35568;48.104;11.782;2024-01-06T11:15:41;3;2;
48155;PMS5003;35568;48.104;11.782;2024-01-06T11:18:10;5;4;
48155;PMS5003;35568;48.104;11.782;2024-01-06T11:21:17;2;2;
48155;PMS5003;35568;48.104;11.782;2024-01-06T11:23:45;3;3;
48155;PMS5003;35568;48.104;11.782;2024-01-06T11:26:13;3;3;
48155;PMS5003;35568;48.104;11.782;2024-01-06T11:28:44;3;3;
48155;PMS5003;35568;48.104;11.782;2024-01-06T11:31:12;2;2;
48155;PMS5003;35568;48.104;11.782;2024-01-06T11:33:43;3;3;
48155;PMS5003;35568;48.104;11.782;2024-01-06T11:36:10;4;3;
48155;PMS5003;35568;48.104;11.782;2024-01-06T11:38:38;2;2;
48155;PMS5003;35568;48.104;11.782;2024-01-06T11:41:06;3;3;
48155;PMS5003;35568;48.104;11.782;2024-01-06T11:43:34;4;3;
48155;PMS5003;35568;48.104;11.782;2024-01-06T11:46:01;4;4;
48155;PMS5003;35568;48.104;11.782;2024-01-06T11:48:29;4;4;
48155;PMS5003;35568;48.104;11.782;2024-01-06T11:50:58;2;2;
48155;PMS5003;35568;48.104;11.782;2024-01-06T11:53:26;3;3;
48155;PMS5003;35568;48.104;11.782;2024-01-06T11:55:53;4;4;
48155;PMS5003;35568;48.104;11.782;2024-01-06T11:58:20;3;3;
48155;PMS5003;35568;48.104;11.782;2024-01-06T12:00:55;4;4;
48155;PMS5003;35568;48.104;11.782;2024-01-06T12:03:23;4;4;
48155;PMS5003;35568;48.104;11.782;2024-01-06T12:05:58;3;3;
48155;PMS5003;35568;48.104;11.782;2024-01-06T12:08:26;6;6;
48155;PMS5003;35568;48.104;11.782;2024-01-06T12:11:01;6;5;
48155;PMS5003;35568;48.104;11.782;2024-01-06T12:13:28;6;6;
48155;PMS5003;35568;48.104;11.782;2024-01-06T12:15:56;4;4;
48155;PMS5003;35568;48.104;11.782;2024-01-06T12:18:24;5;5;
48155;PMS5003;35568;48.104;11.782;2024-01-06T12:20:52;8;7;
48155;PMS5003;35568;48.104;11.782;2024-01-06T12:23:24;6;5;
48155;PMS5003;35568;48.104;11.782;2024-01-06T12:25:51;5;5;
48155;PMS5003;35568;48.104;11.782;2024-01-06T12:28:18;4;4;
48155;PMS5003;35568;48.104;11.782;2024-01-06T12:30:45;6;6;
48155;PMS5003;35568;48.104;11.782;2024-01-06T12:33:12;5;5;
48155;PMS5003;35568;48.104;11.782;2024-01-06T12:35:40;8;8;
48155;PMS5003;35568;48.104;11.782;2024-01-06T12:38:08;7;6;
48155;PMS5003;35568;48.104;11.782;2024-01-06T12:40:36;8;6;
48155;PMS5003;35568;48.104;11.782;2024-01-06T12:43:04;7;7;
48155;PMS5003;35568;48.104;11.782;2024-01-06T12:45:31;6;6;
48155;PMS5003;35568;48.104;11.782;2024-01-06T12:47:59;6;6;
48155;PMS5003;35568;48.104;11.782;2024-01-06T12:50:26;7;6;
48155;PMS5003;35568;48.104;11.782;2024-01-06T12:52:54;5;5;
48155;PMS5003;35568;48.104;11.782;2024-01-06T12:55:21;3;3;
48155;PMS5003;35568;48.104;11.782;2024-01-06T12:57:47;5;5;
48155;PMS5003;35568;48.104;11.782;2024-01-06T13:00:15;4;4;
48155;PMS5003;35568;48.104;11.782;2024-01-06T13:02:43;4;4;
48155;PMS5003;35568;48.104;11.782;2024-01-06T13:05:10;8;7;
48155;PMS5003;35568;48.104;11.782;2024-01-06T13:07:37;6;6;
48155;PMS5003;35568;48.104;11.782;2024-01-06T13:10:05;6;6;
48155;PMS5003;35568;48.104;11.782;2024-01-06T13:12:32;6;5;
48155;PMS5003;35568;48.104;11.782;2024-01-06T13:14:59;6;6;
48155;PMS5003;35568;48.104;11.782;2024-01-06T13:17:26;6;5;
48155;PMS5003;35568;48.104;11.782;2024-01-06T13:19:53;4;4;
48155;PMS5003;35568;48.104;11.782;2024-01-06T13:22:21;5;5;
48155;PMS5003;35568;48.104;11.782;2024-01-06T13:24:47;4;4;
48155;PMS5003;35568;48.104;11.782;2024-01-06T13:27:14;3;3;
48155;PMS5003;35568;48.104;11.782;2024-01-06T13:29:41;5;4;
48155;PMS5003;35568;48.104;11.782;2024-01-06T13:32:08;4;3;
48155;PMS5003;35568;48.104;11.782;2024-01-06T13:34:35;5;5;
48155;PMS5003;35568;48.104;11.782;2024-01-06T13:37:02;4;4;
48155;PMS5003;35568;48.104;11.782;2024-01-06T13:39:31;3;3;
48155;PMS5003;35568;48.104;11.782;2024-01-06T13:42:04;5;5;
48155;PMS5003;35568;48.104;11.782;2024-01-06T13:44:39;4;4;
48155;PMS5003;35568;48.104;11.782;2024-01-06T13:47:08;6;6;
48155;PMS5003;35568;48.104;11.782;2024-01-06T13:49:37;6;6;
48155;PMS5003;35568;48.104;11.782;2024-01-06T13:52:05;7;6;
48155;PMS5003;35568;48.104;11.782;2024-01-06T13:54:33;6;5;
48155;PMS5003;35568;48.104;11.782;2024-01-06T13:57:06;6;6;
48155;PMS5003;35568;48.104;11.782;2024-01-06T13:59:33;8;7;
48155;PMS5003;35568;48.104;11.782;2024-01-06T14:02:00;5;5;
48155;PMS5003;35568;48.104;11.782;2024-01-06T14:04:28;7;7;
48155;PMS5003;35568;48.104;11.782;2024-01-06T14:06:55;7;7;
48155;PMS5003;35568;48.104;11.782;2024-01-06T14:09:23;6;6;
48155;PMS5003;35568;48.104;11.782;2024-01-06T14:11:50;7;7;
48155;PMS5003;35568;48.104;11.782;2024-01-06T14:14:18;6;5;
48155;PMS5003;35568;48.104;11.782;2024-01-06T14:16:46;6;6;
48155;PMS5003;35568;48.104;11.782;2024-01-06T14:19:13;8;8;
48155;PMS5003;35568;48.104;11.782;2024-01-06T14:21:40;7;6;
48155;PMS5003;35568;48.104;11.782;2024-01-06T14:24:07;5;5;
48155;PMS5003;35568;48.104;11.782;2024-01-06T14:26:35;6;6;
48155;PMS5003;35568;48.104;11.782;2024-01-06T14:29:02;9;9;
48155;PMS5003;35568;48.104;11.782;2024-01-06T14:31:30;7;6;
48155;PMS5003;35568;48.104;11.782;2024-01-06T14:33:57;6;6;
48155;PMS5003;35568;48.104;11.782;2024-01-06T14:36:24;6;6;
48155;PMS5003;35568;48.104;11.782;2024-01-06T14:38:51;6;6;
48155;PMS5003;35568;48.104;11.782;2024-01-06T14:41:18;9;8;
48155;PMS5003;35568;48.104;11.782;2024-01-06T14:43:46;5;5;
48155;PMS5003;35568;48.104;11.782;2024-01-06T14:46:13;6;5;
48155;PMS5003;35568;48.104;11.782;2024-01-06T14:48:40;7;7;
48155;PMS5003;35568;48.104;11.782;2024-01-06T14:51:07;6;6;
48155;PMS5003;35568;48.104;11.782;2024-01-06T14:53:34;7;7;
48155;PMS5003;35568;48.104;11.782;2024-01-06T14:56:01;4;4;
48155;PMS5003;35568;48.104;11.782;2024-01-06T14:58:29;6;6;
48155;PMS5003;35568;48.104;11.782;2024-01-06T15:00:57;6;6;
48155;PMS5003;35568;48.104;11.782;2024-01-06T15:03:24;6;6;
48155;PMS5003;35568;48.104;11.782;2024-01-06T15:05:51;6;6;
48155;PMS5003;35568;48.104;11.782;2024-01-06T15:08:19;8;8;
48155;PMS5003;35568;48.104;11.782;2024-01-06T15:10:46;7;7;
48155;PMS5003;35568;48.104;11.782;2024-01-06T15:13:13;6;6;
48155;PMS5003;35568;48.104;11.782;2024-01-06T15:15:41;7;7;
48155;PMS5003;35568;48.104;11.782;2024-01-06T15:18:08;7;7;
48155;PMS5003;35568;48.104;11.782;2024-01-06T15:20:37;5;5;
48155;PMS5003;35568;48.104;11.782;2024-01-06T15:23:04;8;8;
48155;PMS5003;35568;48.104;11.782;2024-01-06T15:25:30;8;7;
48155;PMS5003;35568;48.104;11.782;2024-01-06T15:27:57;8;7;
48155;PMS5003;35568;48.104;11.782;2024-01-06T15:30:24;8;6;
48155;PMS5003;35568;48.104;11.782;2024-01-06T15:32:51;6;6;
48155;PMS5003;35568;48.104;11.782;2024-01-06T15:35:18;8;6;
48155;PMS5003;35568;48.104;11.782;2024-01-06T15:37:46;5;5;
48155;PMS5003;35568;48.104;11.782;2024-01-06T15:40:13;7;6;
48155;PMS5003;35568;48.104;11.782;2024-01-06T15:42:41;6;6;
48155;PMS5003;35568;48.104;11.782;2024-01-06T15:45:08;8;8;
48155;PMS5003;35568;48.104;11.782;2024-01-06T15:47:36;7;7;
48155;PMS5003;35568;48.104;11.782;2024-01-06T15:50:04;12;11;
48155;PMS5003;35568;48.104;11.782;2024-01-06T15:52:32;6;6;
48155;PMS5003;35568;48.104;11.782;2024-01-06T15:54:59;8;7;
48155;PMS5003;35568;48.104;11.782;2024-01-06T15:57:26;9;7;
48155;PMS5003;35568;48.104;11.782;2024-01-06T15:59:55;6;6;
48155;PMS5003;35568;48.104;11.782;2024-01-06T16:02:23;6;6;
48155;PMS5003;35568;48.104;11.782;2024-01-06T16:04:50;10;8;
48155;PMS5003;35568;48.104;11.782;2024-01-06T16:07:17;14;14;
48155;PMS5003;35568;48.104;11.782;2024-01-06T16:09:44;11;11;
48155;PMS5003;35568;48.104;11.782;2024-01-06T16:12:11;8;8;
48155;PMS5003;35568;48.104;11.782;2024-01-06T16:14:38;8;8;
48155;PMS5003;35568;48.104;11.782;2024-01-06T16:17:05;8;8;
48155;PMS5003;35568;48.104;11.782;2024-01-06T16:19:32;7;7;
48155;PMS5003;35568;48.104;11.782;2024-01-06T16:22:00;7;7;
48155;PMS5003;35568;48.104;11.782;2024-01-06T16:24:34;8;8;
48155;PMS5003;35568;48.104;11.782;2024-01-06T16:27:06;12;11;
48155;PMS5003;35568;48.104;11.782;2024-01-06T16:29:33;11;9;
48155;PMS5003;35568;48.104;11.782;2024-01-06T16:32:01;9;9;
48155;PMS5003;35568;48.104;11.782;2024-01-06T16:34:28;19;19;